createdAt,value
2023-01-17T00:01:55.195Z,-3.90
2023-01-17T00:04:42.016Z,-3.91
2023-01-17T00:07:29.813Z,-3.88
2023-01-17T00:09:59.705Z,-3.82
2023-01-17T00:12:31.203Z,-3.90
2023-01-17T00:15:01.012Z,-3.96
2023-01-17T00:17:32.007Z,-3.90
2023-01-17T00:20:20.094Z,-3.84
2023-01-17T00:23:06.564Z,-3.82
2023-01-17T00:25:55.536Z,-3.77
2023-01-17T00:28:24.308Z,-3.78
2023-01-17T00:30:51.647Z,-3.80
2023-01-17T00:33:19.133Z,-3.86
2023-01-17T00:35:49.279Z,-3.67
2023-01-17T00:38:17.655Z,-3.72
2023-01-17T00:40:45.603Z,-3.73
2023-01-17T00:43:33.348Z,-3.80
2023-01-17T00:46:21.007Z,-3.77
2023-01-17T00:49:06.951Z,-3.70
2023-01-17T00:51:55.346Z,-3.69
2023-01-17T00:54:41.430Z,-3.60
2023-01-17T00:57:27.242Z,-3.61
2023-01-17T01:00:14.089Z,-3.63
2023-01-17T01:03:01.502Z,-3.77
2023-01-17T01:05:47.438Z,-3.74
2023-01-17T01:08:38.545Z,-3.65
2023-01-17T01:11:26.505Z,-3.70
2023-01-17T01:14:12.775Z,-3.67
2023-01-17T01:16:58.346Z,-3.54
2023-01-17T01:19:45.561Z,-3.58
2023-01-17T01:22:31.567Z,-3.68
2023-01-17T01:25:17.434Z,-3.46
2023-01-17T01:28:03.390Z,-3.65
2023-01-17T01:30:49.419Z,-3.62
2023-01-17T01:33:19.660Z,-3.65
2023-01-17T01:35:53.873Z,-3.58
2023-01-17T01:38:23.977Z,-3.60
2023-01-17T01:40:56.818Z,-3.54
2023-01-17T01:43:42.571Z,-3.57
2023-01-17T01:46:13.135Z,-3.50
2023-01-17T01:48:43.813Z,-3.50
2023-01-17T01:51:17.169Z,-3.49
2023-01-17T01:53:48.375Z,-3.42
2023-01-17T01:56:17.407Z,-3.42
2023-01-17T01:58:48.633Z,-3.42
2023-01-17T02:01:19.635Z,-3.39
2023-01-17T02:03:48.708Z,-3.38
2023-01-17T02:06:27.588Z,-3.37
2023-01-17T02:08:57.773Z,-3.44
2023-01-17T02:11:26.678Z,-3.37
2023-01-17T02:13:55.509Z,-3.37
2023-01-17T02:16:35.283Z,-3.48
2023-01-17T02:19:17.319Z,-3.38
2023-01-17T02:21:54.407Z,-3.43
2023-01-17T02:25:00.674Z,-3.41
2023-01-17T02:27:30.063Z,-3.42
2023-01-17T02:30:32.211Z,-3.37
2023-01-17T02:33:07.229Z,-3.35
2023-01-17T02:35:41.791Z,-3.31
2023-01-17T02:38:33.217Z,-3.32
2023-01-17T02:41:05.366Z,-3.29
2023-01-17T02:43:36.054Z,-3.34
2023-01-17T02:46:09.895Z,-3.43
2023-01-17T02:48:38.665Z,-3.37
2023-01-17T02:51:51.929Z,-3.30
2023-01-17T02:54:43.275Z,-3.19
2023-01-17T02:57:24.028Z,-3.25
2023-01-17T02:59:56.623Z,-3.22
2023-01-17T03:02:30.710Z,-3.15
2023-01-17T03:05:03.513Z,-3.21
2023-01-17T03:07:33.542Z,-3.18
2023-01-17T03:10:04.762Z,-3.12
2023-01-17T03:12:39.168Z,-3.16
2023-01-17T03:15:11.390Z,-3.03
2023-01-17T03:17:42.640Z,-3.16
2023-01-17T03:20:13.029Z,-3.17
2023-01-17T03:22:42.488Z,-3.17
2023-01-17T03:25:10.967Z,-3.14
2023-01-17T03:27:39.308Z,-3.13
2023-01-17T03:30:08.971Z,-3.09
2023-01-17T03:32:37.337Z,-3.12
2023-01-17T03:35:08.254Z,-3.18
2023-01-17T03:37:36.586Z,-3.15
2023-01-17T03:40:05.477Z,-3.06
2023-01-17T03:42:34.285Z,-3.14
2023-01-17T03:45:02.894Z,-3.07
2023-01-17T03:47:32.281Z,-3.16
2023-01-17T03:50:00.666Z,-3.16
2023-01-17T03:52:30.509Z,-3.03
2023-01-17T03:54:58.837Z,-3.05
2023-01-17T03:57:33.085Z,-3.08
2023-01-17T04:00:01.430Z,-3.12
2023-01-17T04:02:32.446Z,-2.99
2023-01-17T04:05:03.924Z,-3.06
2023-01-17T04:07:33.658Z,-3.01
2023-01-17T04:10:02.027Z,-3.14
2023-01-17T04:12:32.255Z,-3.09
2023-01-17T04:15:00.620Z,-3.06
2023-01-17T04:17:29.029Z,-3.06
2023-01-17T04:19:57.427Z,-3.19
2023-01-17T04:22:25.860Z,-3.18
2023-01-17T04:24:55.603Z,-3.20
2023-01-17T04:27:23.903Z,-3.12
2023-01-17T04:29:52.891Z,-3.12
2023-01-17T04:32:21.223Z,-3.05
2023-01-17T04:34:50.147Z,-3.12
2023-01-17T04:37:20.342Z,-3.04
2023-01-17T04:39:48.939Z,-3.03
2023-01-17T04:42:18.650Z,-3.03
2023-01-17T04:44:46.987Z,-2.97
2023-01-17T04:47:15.506Z,-2.93
2023-01-17T04:49:44.253Z,-3.00
2023-01-17T04:52:12.722Z,-2.93
2023-01-17T04:54:41.000Z,-2.89
2023-01-17T04:57:09.282Z,-2.91
2023-01-17T04:59:38.967Z,-2.89
2023-01-17T05:02:07.325Z,-2.91
2023-01-17T05:04:35.786Z,-2.88
2023-01-17T05:07:04.202Z,-2.80
2023-01-17T05:09:32.577Z,-2.74
2023-01-17T05:12:00.971Z,-2.82
2023-01-17T05:14:29.283Z,-2.80
2023-01-17T05:16:59.308Z,-2.74
2023-01-17T05:19:28.094Z,-2.89
2023-01-17T05:21:56.487Z,-2.87
2023-01-17T05:24:24.783Z,-2.83
2023-01-17T05:26:54.867Z,-2.85
2023-01-17T05:29:23.366Z,-2.82
2023-01-17T05:31:51.674Z,-2.83
2023-01-17T05:34:21.418Z,-2.79
2023-01-17T05:36:49.892Z,-2.79
2023-01-17T05:39:18.264Z,-2.71
2023-01-17T05:41:49.659Z,-2.72
2023-01-17T05:44:17.938Z,-2.78
2023-01-17T05:46:46.276Z,-2.73
2023-01-17T05:49:14.883Z,-2.70
2023-01-17T05:51:46.867Z,-2.63
2023-01-17T05:54:15.223Z,-2.60
2023-01-17T05:56:43.537Z,-2.61
2023-01-17T05:59:14.124Z,-2.63
2023-01-17T06:01:45.117Z,-2.68
2023-01-17T06:04:13.505Z,-2.66
2023-01-17T06:06:41.879Z,-2.59
2023-01-17T06:09:12.975Z,-2.59
2023-01-17T06:11:44.317Z,-2.65
2023-01-17T06:14:12.663Z,-2.49
2023-01-17T06:16:42.851Z,-2.50
2023-01-17T06:19:11.292Z,-2.46
2023-01-17T06:21:39.651Z,-2.48
2023-01-17T06:24:08.536Z,-2.40
2023-01-17T06:26:38.259Z,-2.33
2023-01-17T06:29:06.584Z,-2.38
2023-01-17T06:31:34.926Z,-2.23
2023-01-17T06:34:04.101Z,-2.39
2023-01-17T06:36:32.488Z,-2.30
2023-01-17T06:39:00.818Z,-2.42
2023-01-17T06:41:29.134Z,-2.49
2023-01-17T06:43:58.890Z,-2.51
2023-01-17T06:46:27.264Z,-2.36
2023-01-17T06:48:55.736Z,-2.56
2023-01-17T06:51:24.118Z,-2.52
2023-01-17T06:53:52.413Z,-2.44
2023-01-17T06:56:20.726Z,-2.40
2023-01-17T06:58:52.041Z,-2.42
2023-01-17T07:01:21.819Z,-2.52
2023-01-17T07:03:52.545Z,-2.42
2023-01-17T07:06:21.196Z,-2.36
2023-01-17T07:08:51.270Z,-2.28
2023-01-17T07:11:19.842Z,-2.24
2023-01-17T07:13:48.282Z,-2.30
2023-01-17T07:16:17.097Z,-2.25
2023-01-17T07:18:49.767Z,-2.21
2023-01-17T07:21:18.199Z,-2.10
2023-01-17T07:23:46.554Z,-2.08
2023-01-17T07:26:18.354Z,-1.94
2023-01-17T07:28:46.781Z,-2.05
2023-01-17T07:31:15.144Z,-2.03
2023-01-17T07:33:43.583Z,-2.12
2023-01-17T07:36:13.531Z,-2.12
2023-01-17T07:38:44.016Z,-2.06
2023-01-17T07:41:13.036Z,-1.97
2023-01-17T07:43:42.088Z,-2.03
2023-01-17T07:46:10.487Z,-2.05
2023-01-17T07:48:38.869Z,-1.97
2023-01-17T07:51:10.312Z,-1.90
2023-01-17T07:53:39.965Z,-1.95
2023-01-17T07:56:13.321Z,-1.95
2023-01-17T07:58:41.954Z,-1.92
2023-01-17T08:01:15.889Z,-1.86
2023-01-17T08:03:44.604Z,-1.75
2023-01-17T08:06:18.675Z,-1.83
2023-01-17T08:08:48.469Z,-1.81
2023-01-17T08:11:19.097Z,-1.75
2023-01-17T08:13:47.507Z,-1.70
2023-01-17T08:16:16.191Z,-1.74
2023-01-17T08:18:44.614Z,-1.63
2023-01-17T08:21:17.003Z,-1.65
2023-01-17T08:23:49.944Z,-1.60
2023-01-17T08:26:21.642Z,-1.61
2023-01-17T08:28:50.974Z,-1.56
2023-01-17T08:31:20.056Z,-1.47
2023-01-17T08:33:48.549Z,-1.51
2023-01-17T08:36:16.897Z,-1.48
2023-01-17T08:38:52.939Z,-1.48
2023-01-17T08:41:21.873Z,-1.49
2023-01-17T08:43:52.037Z,-1.52
2023-01-17T08:46:20.846Z,-1.47
2023-01-17T08:48:49.475Z,-1.47
2023-01-17T08:51:19.671Z,-1.38
2023-01-17T08:53:49.688Z,-1.33
2023-01-17T08:56:18.104Z,-1.33
2023-01-17T08:58:47.778Z,-1.21
2023-01-17T09:01:20.040Z,-1.16
2023-01-17T09:03:51.517Z,-1.28
2023-01-17T09:06:19.937Z,-1.22
2023-01-17T09:08:49.842Z,-1.05
2023-01-17T09:11:18.711Z,-0.96
2023-01-17T09:13:47.045Z,-0.98
2023-01-17T09:16:15.500Z,-0.83
2023-01-17T09:18:46.578Z,-0.76
2023-01-17T09:21:18.211Z,-0.68
2023-01-17T09:23:46.671Z,-0.72
2023-01-17T09:26:22.694Z,-0.87
2023-01-17T09:28:56.275Z,-0.82
2023-01-17T09:31:27.142Z,-0.69
2023-01-17T09:33:56.667Z,-0.71
2023-01-17T09:36:28.962Z,-0.75
2023-01-17T09:38:58.788Z,-0.85
2023-01-17T09:41:30.936Z,-0.65
2023-01-17T09:44:06.411Z,-0.68
2023-01-17T09:46:39.260Z,-0.69
2023-01-17T09:49:15.578Z,-0.65
2023-01-17T09:51:44.994Z,-0.68
2023-01-17T09:54:22.820Z,-0.67
2023-01-17T09:56:58.627Z,-0.59
2023-01-17T09:59:35.279Z,-0.65
2023-01-17T10:02:12.522Z,-0.77
2023-01-17T10:04:53.035Z,-0.67
2023-01-17T10:07:32.517Z,-0.70
2023-01-17T10:10:14.172Z,-0.56
2023-01-17T10:12:52.091Z,-0.58
2023-01-17T10:15:33.823Z,-0.56
2023-01-17T10:18:19.056Z,-0.66
2023-01-17T10:21:03.258Z,-0.66
2023-01-17T10:23:43.568Z,-0.64
2023-01-17T10:26:13.688Z,-0.65
2023-01-17T10:28:50.699Z,-0.60
2023-01-17T10:31:25.189Z,-0.62
2023-01-17T10:33:56.818Z,-0.65
2023-01-17T10:36:27.763Z,-0.53
2023-01-17T10:39:01.876Z,-0.55
2023-01-17T10:41:31.589Z,-0.60
2023-01-17T10:44:08.665Z,-0.47
2023-01-17T10:46:40.719Z,-0.45
2023-01-17T10:49:17.136Z,-0.41
2023-01-17T10:52:09.134Z,-0.34
2023-01-17T10:54:51.930Z,-0.34
2023-01-17T10:57:22.886Z,-0.27
2023-01-17T10:59:52.984Z,-0.29
2023-01-17T11:02:25.328Z,-0.26
2023-01-17T11:04:57.714Z,-0.19
2023-01-17T11:07:27.433Z,-0.24
2023-01-17T11:09:57.201Z,-0.25
2023-01-17T11:12:30.809Z,-0.28
2023-01-17T11:15:04.208Z,-0.25
2023-01-17T11:17:33.579Z,-0.26
2023-01-17T11:20:11.436Z,-0.28
2023-01-17T11:22:45.089Z,-0.24
2023-01-17T11:25:22.141Z,-0.17
2023-01-17T11:27:59.448Z,-0.16
2023-01-17T11:30:30.988Z,-0.13
2023-01-17T11:33:02.715Z,-0.24
2023-01-17T11:35:34.398Z,-0.16
2023-01-17T11:38:07.772Z,-0.07
2023-01-17T11:40:40.048Z,-0.10
2023-01-17T11:43:26.050Z,-0.04
2023-01-17T11:46:19.388Z,-0.01
2023-01-17T11:48:55.041Z,0.07
2023-01-17T11:51:27.215Z,0.07
2023-01-17T11:54:05.932Z,0.03
2023-01-17T11:56:37.871Z,-0.02
2023-01-17T11:59:19.125Z,0.02
2023-01-17T12:02:03.421Z,-0.05
2023-01-17T12:04:37.305Z,0.05
2023-01-17T12:07:21.582Z,0.08
2023-01-17T12:09:56.153Z,0.07
2023-01-17T12:12:53.767Z,0.00
2023-01-17T12:15:34.498Z,0.11
2023-01-17T12:18:19.243Z,0.09
2023-01-17T12:20:57.976Z,0.01
2023-01-17T12:23:41.879Z,0.13
2023-01-17T12:26:20.814Z,0.10
2023-01-17T12:29:08.975Z,0.12
2023-01-17T12:31:43.476Z,0.21
2023-01-17T12:34:22.972Z,0.23
2023-01-17T12:36:53.911Z,0.18
2023-01-17T12:39:28.348Z,0.23
2023-01-17T12:42:03.796Z,0.26
2023-01-17T12:44:42.848Z,0.26
2023-01-17T12:47:12.298Z,0.25
2023-01-17T12:49:46.754Z,0.28
2023-01-17T12:52:22.824Z,0.27
2023-01-17T12:54:54.831Z,0.28
2023-01-17T12:57:25.076Z,0.29
2023-01-17T13:00:01.122Z,0.28
2023-01-17T13:02:37.835Z,0.27
2023-01-17T13:05:11.922Z,0.34
2023-01-17T13:07:45.773Z,0.34
2023-01-17T13:10:36.523Z,0.36
2023-01-17T13:13:17.237Z,0.31
2023-01-17T13:15:45.820Z,0.31
2023-01-17T13:18:17.429Z,0.37
2023-01-17T13:21:06.281Z,0.32
2023-01-17T13:24:03.813Z,0.35
2023-01-17T13:26:44.325Z,0.28
2023-01-17T13:29:20.373Z,0.31
2023-01-17T13:31:52.325Z,0.32
2023-01-17T13:34:42.131Z,0.37
2023-01-17T13:37:28.524Z,0.39
2023-01-17T13:40:20.059Z,0.34
2023-01-17T13:42:54.964Z,0.42
2023-01-17T13:45:24.671Z,0.43
2023-01-17T13:47:54.056Z,0.46
2023-01-17T13:50:47.190Z,0.44
2023-01-17T13:53:58.065Z,0.42
2023-01-17T13:56:39.966Z,0.47
2023-01-17T13:59:36.034Z,0.45
2023-01-17T14:02:37.492Z,0.44
2023-01-17T14:05:15.378Z,0.49
2023-01-17T14:07:47.621Z,0.53
2023-01-17T14:10:40.918Z,0.52
2023-01-17T14:13:33.054Z,0.43
2023-01-17T14:16:02.138Z,0.47
2023-01-17T14:18:35.136Z,0.51
2023-01-17T14:21:12.986Z,0.52
2023-01-17T14:23:51.761Z,0.56
2023-01-17T14:26:29.489Z,0.56
2023-01-17T14:28:59.762Z,0.56
2023-01-17T14:31:28.494Z,0.51
2023-01-17T14:33:56.921Z,0.57
2023-01-17T14:36:30.516Z,0.54
2023-01-17T14:38:58.969Z,0.57
2023-01-17T14:41:29.930Z,0.53
2023-01-17T14:44:01.291Z,0.62
2023-01-17T14:46:34.194Z,0.61
2023-01-17T14:49:07.525Z,0.55
2023-01-17T14:51:39.882Z,0.57
2023-01-17T14:54:19.520Z,0.64
2023-01-17T14:56:48.234Z,0.62
2023-01-17T14:59:21.681Z,0.57
2023-01-17T15:02:06.592Z,0.67
2023-01-17T15:04:39.642Z,0.69
2023-01-17T15:07:09.240Z,0.68
2023-01-17T15:09:40.220Z,0.73
2023-01-17T15:12:10.971Z,0.69
2023-01-17T15:14:44.014Z,0.70
2023-01-17T15:17:21.223Z,0.74
2023-01-17T15:19:51.842Z,0.67
2023-01-17T15:22:21.124Z,0.67
2023-01-17T15:24:50.349Z,0.67
2023-01-17T15:27:18.888Z,0.66
2023-01-17T15:29:48.987Z,0.71
2023-01-17T15:32:23.784Z,0.66
2023-01-17T15:34:52.478Z,0.74
2023-01-17T15:37:29.916Z,0.62
2023-01-17T15:40:07.391Z,0.58
2023-01-17T15:42:37.863Z,0.59
2023-01-17T15:45:12.930Z,0.55
2023-01-17T15:47:41.662Z,0.58
2023-01-17T15:50:30.364Z,0.65
2023-01-17T15:53:01.001Z,0.62
2023-01-17T15:55:32.718Z,0.62
2023-01-17T15:58:04.772Z,0.63
2023-01-17T16:00:42.023Z,0.59
2023-01-17T16:03:23.617Z,0.60
2023-01-17T16:05:52.984Z,0.56
2023-01-17T16:08:39.760Z,0.61
2023-01-17T16:11:13.611Z,0.57
2023-01-17T16:13:43.564Z,0.55
2023-01-17T16:16:15.747Z,0.58
2023-01-17T16:18:44.796Z,0.52
2023-01-17T16:21:24.428Z,0.54
2023-01-17T16:23:55.580Z,0.55
2023-01-17T16:26:24.865Z,0.55
2023-01-17T16:28:53.578Z,0.53
2023-01-17T16:31:24.267Z,0.44
2023-01-17T16:33:53.539Z,0.54
2023-01-17T16:36:25.104Z,0.46
2023-01-17T16:38:55.932Z,0.48
2023-01-17T16:41:26.246Z,0.43
2023-01-17T16:43:59.816Z,0.41
2023-01-17T16:46:30.421Z,0.40
2023-01-17T16:49:01.274Z,0.40
2023-01-17T16:51:29.714Z,0.37
2023-01-17T16:54:02.353Z,0.35
2023-01-17T16:56:30.827Z,0.24
2023-01-17T16:58:59.202Z,0.23
2023-01-17T17:01:27.562Z,0.28
2023-01-17T17:04:00.035Z,0.22
2023-01-17T17:06:29.000Z,0.25
2023-01-17T17:08:57.406Z,0.20
2023-01-17T17:11:25.773Z,0.23
2023-01-17T17:13:54.387Z,0.10
2023-01-17T17:16:29.353Z,-0.03
2023-01-17T17:18:59.461Z,-0.01
2023-01-17T17:21:28.800Z,-0.07
2023-01-17T17:23:58.728Z,-0.09
2023-01-17T17:26:29.070Z,-0.09
2023-01-17T17:28:57.560Z,-0.13
2023-01-17T17:31:26.223Z,-0.24
2023-01-17T17:33:58.259Z,-0.26
2023-01-17T17:36:28.551Z,-0.31
2023-01-17T17:38:57.427Z,-0.31
2023-01-17T17:41:28.299Z,-0.29
2023-01-17T17:43:58.253Z,-0.28
2023-01-17T17:46:27.385Z,-0.27
2023-01-17T17:48:56.206Z,-0.32
2023-01-17T17:51:28.196Z,-0.29
2023-01-17T17:53:57.703Z,-0.36
2023-01-17T17:56:26.045Z,-0.40
2023-01-17T17:58:54.716Z,-0.35
2023-01-17T18:01:24.427Z,-0.43
2023-01-17T18:03:55.216Z,-0.36
2023-01-17T18:06:24.080Z,-0.39
2023-01-17T18:08:53.985Z,-0.41
2023-01-17T18:11:24.066Z,-0.39
2023-01-17T18:13:56.971Z,-0.38
2023-01-17T18:16:27.452Z,-0.38
2023-01-17T18:19:00.081Z,-0.43
2023-01-17T18:21:30.468Z,-0.44
2023-01-17T18:24:02.010Z,-0.42
2023-01-17T18:26:32.509Z,-0.34
2023-01-17T18:29:02.082Z,-0.45
2023-01-17T18:31:33.977Z,-0.46
2023-01-17T18:34:05.869Z,-0.37
2023-01-17T18:36:35.950Z,-0.38
2023-01-17T18:39:06.772Z,-0.41
2023-01-17T18:41:35.154Z,-0.38
2023-01-17T18:44:06.001Z,-0.35
2023-01-17T18:46:39.284Z,-0.36
2023-01-17T18:49:11.870Z,-0.37
2023-01-17T18:51:40.540Z,-0.36
2023-01-17T18:54:13.068Z,-0.36
2023-01-17T18:56:42.488Z,-0.35
2023-01-17T18:59:15.640Z,-0.35
2023-01-17T19:01:49.081Z,-0.36
2023-01-17T19:04:18.347Z,-0.36
2023-01-17T19:06:48.481Z,-0.39
2023-01-17T19:09:20.354Z,-0.40
2023-01-17T19:11:52.538Z,-0.38
2023-01-17T19:14:21.008Z,-0.39
2023-01-17T19:16:52.745Z,-0.40
2023-01-17T19:19:21.181Z,-0.42
2023-01-17T19:21:53.954Z,-0.50
2023-01-17T19:24:26.418Z,-0.39
2023-01-17T19:26:54.855Z,-0.37
2023-01-17T19:29:23.541Z,-0.37
2023-01-17T19:31:53.008Z,-0.35
2023-01-17T19:34:21.450Z,-0.37
2023-01-17T19:36:52.281Z,-0.45
2023-01-17T19:39:22.635Z,-0.37
2023-01-17T19:41:53.967Z,-0.44
2023-01-17T19:44:22.579Z,-0.46
2023-01-17T19:46:51.218Z,-0.51
2023-01-17T19:49:24.366Z,-0.63
2023-01-17T19:51:55.202Z,-0.50
2023-01-17T19:54:23.619Z,-0.43
2023-01-17T19:56:56.045Z,-0.49
2023-01-17T19:59:24.555Z,-0.50
2023-01-17T20:01:53.305Z,-0.47
2023-01-17T20:04:21.828Z,-0.48
2023-01-17T20:06:50.423Z,-0.47
2023-01-17T20:09:18.995Z,-0.53
2023-01-17T20:11:50.921Z,-0.55
2023-01-17T20:14:21.692Z,-0.57
2023-01-17T20:16:51.506Z,-0.59
2023-01-17T20:19:20.021Z,-0.61
2023-01-17T20:21:49.484Z,-0.60
2023-01-17T20:24:20.801Z,-0.66
2023-01-17T20:26:51.167Z,-0.71
2023-01-17T20:29:21.142Z,-0.73
2023-01-17T20:31:52.562Z,-0.77
2023-01-17T20:34:21.090Z,-0.62
2023-01-17T20:36:49.485Z,-0.69
2023-01-17T20:39:25.348Z,-0.73
2023-01-17T20:41:53.868Z,-0.75
2023-01-17T20:44:26.360Z,-0.66
2023-01-17T20:46:57.067Z,-0.75
2023-01-17T20:49:25.772Z,-0.79
2023-01-17T20:51:55.291Z,-0.72
2023-01-17T20:54:24.606Z,-0.73
2023-01-17T20:56:53.194Z,-0.75
2023-01-17T20:59:23.787Z,-0.77
2023-01-17T21:01:52.392Z,-0.83
2023-01-17T21:04:25.783Z,-0.94
2023-01-17T21:06:57.017Z,-0.98
2023-01-17T21:09:28.044Z,-1.01
2023-01-17T21:12:01.196Z,-1.01
2023-01-17T21:14:31.434Z,-1.00
2023-01-17T21:17:03.936Z,-0.98
2023-01-17T21:19:32.370Z,-0.97
2023-01-17T21:22:01.563Z,-0.96
2023-01-17T21:24:29.962Z,-1.01
2023-01-17T21:26:58.407Z,-1.01
2023-01-17T21:29:29.175Z,-1.09
2023-01-17T21:31:59.055Z,-1.16
2023-01-17T21:34:29.531Z,-1.09
2023-01-17T21:36:57.908Z,-1.07
2023-01-17T21:39:26.391Z,-1.17
2023-01-17T21:41:54.803Z,-1.27
2023-01-17T21:44:24.440Z,-1.22
2023-01-17T21:46:56.109Z,-1.33
2023-01-17T21:49:26.212Z,-1.28
2023-01-17T21:52:11.956Z,-1.28
2023-01-17T21:54:57.955Z,-1.32
2023-01-17T21:57:43.964Z,-1.28
2023-01-17T22:00:15.609Z,-1.27
2023-01-17T22:02:44.490Z,-1.31
2023-01-17T22:05:15.066Z,-1.34
2023-01-17T22:08:04.589Z,-1.33
2023-01-17T22:10:33.155Z,-1.29
2023-01-17T22:13:03.505Z,-1.24
2023-01-17T22:15:31.859Z,-1.23
2023-01-17T22:18:00.552Z,-1.36
2023-01-17T22:20:30.357Z,-1.30
2023-01-17T22:22:59.032Z,-1.25
2023-01-17T22:25:27.621Z,-1.29
2023-01-17T22:27:56.589Z,-1.30
2023-01-17T22:30:25.160Z,-1.24
2023-01-17T22:32:56.290Z,-1.26
2023-01-17T22:35:27.170Z,-1.28
2023-01-17T22:37:57.684Z,-1.31
2023-01-17T22:40:27.935Z,-1.27
2023-01-17T22:42:56.540Z,-1.22
2023-01-17T22:45:26.007Z,-1.32
2023-01-17T22:47:54.384Z,-1.32
2023-01-17T22:50:23.464Z,-1.28
2023-01-17T22:52:51.841Z,-1.32
2023-01-17T22:55:21.671Z,-1.25
2023-01-17T22:57:50.240Z,-1.30
2023-01-17T23:00:19.227Z,-1.31
2023-01-17T23:02:49.952Z,-1.31
2023-01-17T23:05:20.982Z,-1.33
2023-01-17T23:07:50.929Z,-1.28
2023-01-17T23:10:45.834Z,-1.36
2023-01-17T23:13:15.662Z,-1.27
2023-01-17T23:16:04.341Z,-1.34
2023-01-17T23:18:50.389Z,-1.34
2023-01-17T23:21:19.233Z,-1.32
2023-01-17T23:23:47.589Z,-1.36
2023-01-17T23:26:16.989Z,-1.35
2023-01-17T23:28:45.685Z,-1.38
2023-01-17T23:31:14.056Z,-1.34
2023-01-17T23:33:44.200Z,-1.39
2023-01-17T23:36:15.489Z,-1.33
2023-01-17T23:38:44.203Z,-1.30
2023-01-17T23:41:30.135Z,-1.29
2023-01-17T23:44:01.891Z,-1.25
2023-01-17T23:46:31.063Z,-1.29
2023-01-17T23:48:59.482Z,-1.35
2023-01-17T23:51:28.154Z,-1.28
2023-01-17T23:54:05.465Z,-1.38
2023-01-17T23:56:36.348Z,-1.37
2023-01-17T23:59:06.098Z,-1.40
